Time;durP1;ratioP1;P1;durP2;ratioP2;P2;SDS_P1;SDS_P2;PMS_P1;PMS_P2;Temp;Humidity;BMP_temperature;BMP_pressure;BME280_temperature;BME280_humidity;BME280_pressure;Samples;Min_cycle;Max_cycle;Signal;HPM_P1;HPM_P2
2022/04/29 00:00:43;;;;;;;6.97;3.72;;;17.00;45.10;;;;;;5052211;28;20025;-77
2022/04/29 00:03:10;;;;;;;7.03;3.25;;;17.00;45.00;;;;;;5053063;28;20029;-77
2022/04/29 00:05:37;;;;;;;8.95;3.60;;;17.00;45.20;;;;;;5053009;28;20021;-76
2022/04/29 00:08:05;;;;;;;6.95;3.28;;;16.90;45.50;;;;;;5053444;28;20024;-77
2022/04/29 00:10:31;;;;;;;6.10;3.25;;;16.90;45.20;;;;;;5051830;28;20021;-77
2022/04/29 00:12:56;;;;;;;7.20;3.47;;;16.90;45.20;;;;;;5051640;28;20040;-76
2022/04/29 00:15:22;;;;;;;4.38;2.90;;;16.90;45.10;;;;;;5055147;28;20024;-77
2022/04/29 00:17:48;;;;;;;5.93;3.50;;;16.90;45.10;;;;;;5057110;28;20051;-76
2022/04/29 00:20:14;;;;;;;6.55;3.72;;;16.90;45.50;;;;;;5057383;28;20017;-76
2022/04/29 00:22:41;;;;;;;8.00;3.65;;;16.90;45.50;;;;;;5056988;28;20029;-77
2022/04/29 00:25:08;;;;;;;6.70;3.60;;;16.90;46.00;;;;;;5057004;28;20021;-76
2022/04/29 00:27:36;;;;;;;6.03;3.33;;;16.80;45.40;;;;;;5056901;28;20017;-77
2022/04/29 00:30:04;;;;;;;5.18;3.55;;;16.90;44.40;;;;;;5058375;28;20052;-77
2022/04/29 00:32:30;;;;;;;7.65;3.40;;;16.90;45.40;;;;;;5062305;28;20069;-76
2022/04/29 00:34:56;;;;;;;7.43;3.40;;;16.90;45.60;;;;;;5058713;28;20021;-76
2022/04/29 00:37:22;;;;;;;10.63;3.65;;;16.90;45.40;;;;;;5055451;28;20040;-77
2022/04/29 00:39:48;;;;;;;6.65;3.58;;;16.90;45.50;;;;;;5056624;28;20037;-76
2022/04/29 00:42:16;;;;;;;5.75;3.33;;;16.90;45.40;;;;;;5056651;28;20100;-77
2022/04/29 00:44:43;;;;;;;10.07;3.60;;;16.90;45.70;;;;;;5056229;28;20470;-76
2022/04/29 00:47:11;;;;;;;6.47;3.15;;;16.90;45.60;;;;;;5054957;28;20032;-76
2022/04/29 00:49:37;;;;;;;5.72;3.67;;;16.90;45.30;;;;;;5056400;28;20478;-76
2022/04/29 00:52:07;;;;;;;6.43;3.10;;;16.90;45.50;;;;;;5055970;28;20033;-77
2022/04/29 00:54:37;;;;;;;7.78;3.22;;;16.90;45.30;;;;;;5055119;28;20032;-76
2022/04/29 00:57:10;;;;;;;6.50;3.65;;;16.80;45.60;;;;;;5056402;28;20021;-77
2022/04/29 00:59:47;;;;;;;5.40;3.30;;;16.70;45.30;;;;;;5055149;28;20025;-76
2022/04/29 01:02:14;;;;;;;7.03;3.42;;;16.70;44.70;;;;;;5054900;28;20053;-78
2022/04/29 01:05:05;;;;;;;7.72;3.17;;;16.60;45.50;;;;;;5056082;28;20536;-76
2022/04/29 01:07:34;;;;;;;8.73;3.22;;;16.50;44.10;;;;;;5055535;28;20624;-77
2022/04/29 01:10:00;;;;;;;8.27;3.35;;;16.50;45.60;;;;;;5054637;28;20044;-76
2022/04/29 01:12:28;;;;;;;5.88;3.20;;;16.50;45.70;;;;;;5038185;28;20037;-77
2022/04/29 01:14:57;;;;;;;7.30;3.70;;;16.50;45.60;;;;;;5055917;28;20021;-76
2022/04/29 01:17:23;;;;;;;6.13;3.60;;;16.50;44.40;;;;;;5055873;28;20029;-76
2022/04/29 01:19:49;;;;;;;6.03;3.38;;;16.40;45.40;;;;;;5056129;28;20032;-76
2022/04/29 01:22:15;;;;;;;6.47;3.40;;;16.40;45.50;;;;;;5055090;28;20123;-76
2022/04/29 01:24:41;;;;;;;9.13;3.70;;;16.40;45.60;;;;;;5054200;28;20035;-76
2022/04/29 01:27:11;;;;;;;5.78;3.55;;;16.40;45.50;;;;;;5056188;28;20125;-76
2022/04/29 01:29:41;;;;;;;5.78;2.92;;;16.40;45.90;;;;;;5055791;28;20052;-76
2022/04/29 01:32:11;;;;;;;5.35;2.83;;;16.40;45.90;;;;;;5055501;28;20083;-75
2022/04/29 01:34:37;;;;;;;7.82;3.35;;;16.30;45.70;;;;;;5055475;28;20024;-76
2022/04/29 01:37:04;;;;;;;4.72;3.00;;;16.30;45.80;;;;;;5055402;28;20013;-75
2022/04/29 01:39:31;;;;;;;4.68;3.08;;;16.20;45.60;;;;;;5055598;28;20025;-76
2022/04/29 01:41:57;;;;;;;7.03;3.20;;;16.20;46.00;;;;;;5056120;28;20036;-76
2022/04/29 01:44:23;;;;;;;8.65;3.35;;;16.20;45.70;;;;;;5054252;28;20043;-77
2022/04/29 01:46:49;;;;;;;5.90;2.90;;;16.20;45.80;;;;;;5055462;28;20461;-76
2022/04/29 01:49:15;;;;;;;6.50;3.10;;;16.20;45.80;;;;;;5055410;28;20067;-77
2022/04/29 01:51:41;;;;;;;5.93;2.97;;;16.10;45.60;;;;;;5055418;28;20025;-75
2022/04/29 01:54:10;;;;;;;5.78;3.17;;;16.10;45.90;;;;;;5055049;28;20048;-76
2022/04/29 01:56:40;;;;;;;7.45;2.80;;;16.10;46.00;;;;;;5054039;28;20017;-77
2022/04/29 01:59:06;;;;;;;6.20;3.08;;;16.10;44.70;;;;;;5055204;28;20021;-77
2022/04/29 02:01:34;;;;;;;5.40;2.67;;;16.10;45.80;;;;;;5055317;28;20043;-77
2022/04/29 02:04:01;;;;;;;6.47;3.58;;;16.10;45.70;;;;;;5053763;28;20032;-77
2022/04/29 02:06:27;;;;;;;7.18;3.42;;;16.00;45.80;;;;;;5055154;28;20049;-78
2022/04/29 02:08:53;;;;;;;6.32;3.22;;;16.00;45.80;;;;;;5053677;28;20441;-77
2022/04/29 02:11:23;;;;;;;8.00;3.10;;;16.00;45.80;;;;;;5053965;28;20029;-76
2022/04/29 02:13:50;;;;;;;5.20;2.72;;;16.00;44.70;;;;;;5054087;28;20033;-77
2022/04/29 02:16:15;;;;;;;5.53;2.90;;;15.90;46.00;;;;;;5061587;28;20017;-76
2022/04/29 02:18:41;;;;;;;6.18;2.85;;;15.90;45.80;;;;;;5061853;28;20025;-78
2022/04/29 02:21:07;;;;;;;5.18;2.72;;;15.90;46.60;;;;;;5061941;28;20024;-76
2022/04/29 02:23:33;;;;;;;7.32;3.20;;;15.80;45.90;;;;;;5059233;28;20105;-77
2022/04/29 02:25:59;;;;;;;5.30;2.80;;;15.80;45.90;;;;;;5059488;28;20506;-76
2022/04/29 02:28:27;;;;;;;6.57;2.97;;;15.80;46.10;;;;;;5055594;28;20036;-76
2022/04/29 02:30:56;;;;;;;7.60;2.92;;;15.80;46.10;;;;;;5054931;28;20025;-74
2022/04/29 02:33:23;;;;;;;6.00;3.22;;;15.80;44.80;;;;;;5054604;28;20041;-75
2022/04/29 02:35:49;;;;;;;7.03;3.38;;;15.80;46.10;;;;;;5053302;28;20367;-74
2022/04/29 02:38:17;;;;;;;4.32;2.83;;;15.70;46.10;;;;;;5054621;28;20087;-76
2022/04/29 02:40:42;;;;;;;6.10;2.97;;;15.70;46.10;;;;;;5054173;28;20493;-76
2022/04/29 02:43:08;;;;;;;7.20;2.92;;;15.70;46.30;;;;;;5054018;28;20033;-77
2022/04/29 02:45:34;;;;;;;7.95;2.75;;;15.70;46.00;;;;;;5054337;28;20028;-77
2022/04/29 02:48:00;;;;;;;5.65;2.60;;;15.70;45.70;;;;;;5053097;28;20107;-78
2022/04/29 02:50:26;;;;;;;4.70;2.90;;;15.70;45.70;;;;;;5054123;28;20104;-78
2022/04/29 02:52:52;;;;;;;6.72;3.03;;;15.70;46.20;;;;;;5053976;28;20564;-77
2022/04/29 02:55:18;;;;;;;5.82;2.97;;;15.70;46.00;;;;;;5054006;28;20021;-76
2022/04/29 02:57:44;;;;;;;5.85;3.13;;;15.70;45.90;;;;;;5054166;28;20048;-77
2022/04/29 03:00:10;;;;;;;8.93;3.10;;;15.70;46.40;;;;;;5053921;28;20108;-77
2022/04/29 03:02:36;;;;;;;6.82;2.97;;;15.70;46.20;;;;;;5054152;28;20477;-76
2022/04/29 03:05:05;;;;;;;4.78;3.00;;;15.70;46.20;;;;;;5053930;28;20033;-76
2022/04/29 03:07:35;;;;;;;5.85;2.90;;;15.70;46.10;;;;;;5054018;28;20182;-77
2022/04/29 03:10:02;;;;;;;4.95;3.08;;;15.70;45.80;;;;;;5053083;28;20467;-77
2022/04/29 03:12:28;;;;;;;8.80;3.03;;;15.70;44.90;;;;;;5052713;28;20029;-78
2022/04/29 03:15:15;;;;;;;10.27;3.10;;;15.70;46.30;;;;;;5053015;28;20427;-77
2022/04/29 03:20:23;;;;;;;;;;;15.70;45.30;;;;;;5054957;28;20472;-76
2022/04/29 03:22:48;;;;;;;4.38;2.90;;;15.70;46.70;;;;;;5053833;28;19909;-77
2022/04/29 03:25:14;;;;;;;5.38;2.95;;;15.60;46.10;;;;;;5054056;28;20360;-77
2022/04/29 03:27:40;;;;;;;7.35;2.97;;;15.60;46.40;;;;;;5053534;28;20374;-77
2022/04/29 03:30:06;;;;;;;4.85;2.72;;;15.50;46.30;;;;;;5054424;28;20043;-78
2022/04/29 03:32:32;;;;;;;6.93;2.90;;;15.50;45.80;;;;;;5054891;28;20079;-77
2022/04/29 03:34:57;;;;;;;5.68;2.83;;;15.40;46.20;;;;;;5053996;28;20497;-76
2022/04/29 03:37:23;;;;;;;3.90;2.58;;;15.40;46.30;;;;;;5054162;28;20432;-77
2022/04/29 03:39:49;;;;;;;6.30;2.97;;;15.40;46.60;;;;;;5053902;28;20092;-77
2022/04/29 03:42:14;;;;;;;4.40;2.63;;;15.40;46.50;;;;;;5052635;28;20028;-77
2022/04/29 03:44:40;;;;;;;4.65;2.97;;;15.30;46.60;;;;;;5053233;28;20535;-77
2022/04/29 03:47:06;;;;;;;6.82;3.08;;;15.30;46.60;;;;;;5052207;28;20063;-77
2022/04/29 03:49:37;;;;;;;6.43;3.08;;;15.30;46.90;;;;;;5053207;28;20095;-78
2022/04/29 03:52:04;;;;;;;5.65;3.35;;;15.40;46.10;;;;;;5036002;28;20033;-78
2022/04/29 03:54:30;;;;;;;6.63;3.35;;;15.40;46.60;;;;;;5053177;28;20393;-78
2022/04/29 03:56:57;;;;;;;7.78;3.00;;;15.30;46.90;;;;;;5051965;28;20036;-78
2022/04/29 03:59:22;;;;;;;7.75;2.75;;;15.30;47.00;;;;;;5053097;28;20040;-76
2022/04/29 04:01:48;;;;;;;5.00;3.10;;;15.30;46.80;;;;;;5053154;28;20021;-77
2022/04/29 04:04:14;;;;;;;5.05;2.63;;;15.20;46.90;;;;;;5053040;28;20104;-77
2022/04/29 04:06:52;;;;;;;7.15;3.72;;;15.20;46.60;;;;;;5053146;28;20093;-78
2022/04/29 04:09:20;;;;;;;4.88;3.03;;;15.20;46.40;;;;;;5053042;28;20053;-78
2022/04/29 04:11:46;;;;;;;5.07;2.80;;;15.20;47.30;;;;;;5053249;28;20025;-77
2022/04/29 04:14:12;;;;;;;5.40;2.92;;;15.20;47.10;;;;;;5052978;28;20033;-80
2022/04/29 04:16:38;;;;;;;6.45;3.08;;;15.20;47.10;;;;;;5052091;28;20373;-76
2022/04/29 04:19:05;;;;;;;6.57;3.20;;;15.20;47.20;;;;;;5051932;28;20025;-78
2022/04/29 04:21:30;;;;;;;7.75;3.17;;;15.20;47.20;;;;;;5053225;28;20025;-77
2022/04/29 04:23:56;;;;;;;6.68;3.45;;;15.20;47.50;;;;;;5053060;28;20096;-78
2022/04/29 04:26:23;;;;;;;4.95;3.03;;;15.20;47.30;;;;;;5035126;28;20029;-78
2022/04/29 04:28:48;;;;;;;5.90;2.97;;;15.30;47.50;;;;;;5053909;28;20031;-78
2022/04/29 04:31:14;;;;;;;4.40;2.50;;;15.20;47.00;;;;;;5053461;28;20037;-78
2022/04/29 04:33:40;;;;;;;5.15;2.65;;;15.20;47.40;;;;;;5053323;28;20041;-79
2022/04/29 04:36:06;;;;;;;7.30;3.17;;;15.20;47.40;;;;;;5053360;28;20465;-77
2022/04/29 04:38:32;;;;;;;6.25;3.05;;;15.20;47.50;;;;;;5053470;28;20152;-78
2022/04/29 04:40:59;;;;;;;6.85;3.00;;;15.20;47.30;;;;;;5052237;28;20025;-78
2022/04/29 04:43:25;;;;;;;5.60;2.92;;;15.20;47.30;;;;;;5051893;28;20036;-78
2022/04/29 04:45:52;;;;;;;7.43;2.88;;;15.20;47.30;;;;;;5051568;28;20025;-77
2022/04/29 04:48:18;;;;;;;8.85;3.00;;;15.20;47.20;;;;;;5052984;28;20040;-77
2022/04/29 04:50:44;;;;;;;6.63;3.20;;;15.20;47.40;;;;;;5051656;28;20021;-77
2022/04/29 04:53:09;;;;;;;6.60;3.00;;;15.20;47.40;;;;;;5053371;28;20372;-77
2022/04/29 04:55:39;;;;;;;5.82;2.92;;;15.20;47.20;;;;;;5055162;28;20360;-78
2022/04/29 04:58:05;;;;;;;5.38;2.80;;;15.20;47.30;;;;;;5054423;28;20029;-77
2022/04/29 05:00:31;;;;;;;5.85;2.97;;;15.20;46.90;;;;;;5054243;28;20377;-77
2022/04/29 05:02:57;;;;;;;10.00;3.15;;;15.20;47.40;;;;;;5056096;28;20025;-78
2022/04/29 05:05:22;;;;;;;7.07;3.22;;;15.20;46.90;;;;;;5056134;28;20067;-78
2022/04/29 05:07:48;;;;;;;9.15;3.00;;;15.20;47.20;;;;;;5056031;28;20037;-79
2022/04/29 05:10:15;;;;;;;6.50;2.95;;;15.30;46.90;;;;;;5056284;28;20364;-78
2022/04/29 05:12:45;;;;;;;7.53;3.33;;;15.20;46.80;;;;;;5054626;28;20029;-77
2022/04/29 05:15:12;;;;;;;5.78;3.30;;;15.30;47.10;;;;;;5054571;28;20065;-78
2022/04/29 05:17:39;;;;;;;6.45;3.08;;;15.30;46.90;;;;;;5055845;28;20438;-78
2022/04/29 05:20:06;;;;;;;5.03;2.88;;;15.40;46.50;;;;;;5055710;28;20025;-78
2022/04/29 05:22:32;;;;;;;7.88;2.78;;;15.40;46.50;;;;;;5055822;28;20029;-76
2022/04/29 05:24:58;;;;;;;5.80;3.20;;;15.40;46.30;;;;;;5054290;28;20021;-77
2022/04/29 05:27:24;;;;;;;6.45;3.08;;;15.50;46.50;;;;;;5055698;28;20025;-78
2022/04/29 05:29:50;;;;;;;7.53;3.03;;;15.60;46.80;;;;;;5055445;28;20104;-77
2022/04/29 05:32:16;;;;;;;6.38;3.38;;;15.80;46.70;;;;;;5055396;28;20458;-77
2022/04/29 05:34:43;;;;;;;5.97;3.20;;;15.90;46.70;;;;;;5055455;28;20031;-78
2022/04/29 05:37:09;;;;;;;8.25;3.22;;;16.10;46.40;;;;;;5055651;28;20085;-77
2022/04/29 05:42:21;;;;;;;7.40;3.03;;;16.50;44.80;;;;;;5055615;28;20044;-79
2022/04/29 05:44:47;;;;;;;8.25;3.30;;;16.80;45.50;;;;;;5055358;28;20028;-77
2022/04/29 05:47:13;;;;;;;8.75;3.40;;;17.00;45.10;;;;;;5053825;28;20028;-76
2022/04/29 05:49:39;;;;;;;12.13;3.70;;;17.30;45.30;;;;;;5053901;28;20049;-77
2022/04/29 05:52:06;;;;;;;9.60;3.75;;;17.50;44.50;;;;;;5053555;28;20060;-80
2022/04/29 05:54:32;;;;;;;5.72;3.15;;;17.70;44.50;;;;;;5053649;28;20029;-73
2022/04/29 05:56:59;;;;;;;5.88;3.15;;;17.90;44.20;;;;;;5055166;28;20036;-72
2022/04/29 05:59:26;;;;;;;7.03;2.90;;;18.00;43.70;;;;;;5055102;28;20389;-73
2022/04/29 06:01:54;;;;;;;6.80;3.00;;;18.00;43.30;;;;;;5055170;28;20414;-74
2022/04/29 06:04:20;;;;;;;6.45;3.40;;;18.10;43.40;;;;;;5037321;28;20025;-83
2022/04/29 06:06:47;;;;;;;7.38;3.17;;;18.20;42.90;;;;;;5055304;28;20025;-74
2022/04/29 06:09:12;;;;;;;7.88;3.25;;;18.30;43.00;;;;;;5054132;28;20025;-78
2022/04/29 06:11:38;;;;;;;19.08;4.53;;;18.60;43.00;;;;;;5054754;28;20039;-74
2022/04/29 06:14:04;;;;;;;9.02;3.50;;;18.60;42.80;;;;;;5054664;28;20040;-75
2022/04/29 06:16:30;;;;;;;10.18;3.95;;;18.80;42.80;;;;;;5053322;28;20025;-74
2022/04/29 06:18:55;;;;;;;7.63;3.05;;;18.90;42.40;;;;;;5054442;28;20028;-74
2022/04/29 06:21:21;;;;;;;9.20;3.00;;;19.10;42.00;;;;;;5054558;28;20121;-75
2022/04/29 06:23:49;;;;;;;4.75;2.70;;;19.20;42.10;;;;;;5054429;28;20028;-77
2022/04/29 06:26:15;;;;;;;6.13;3.08;;;19.30;41.90;;;;;;5054721;28;20029;-75
2022/04/29 06:28:41;;;;;;;10.43;3.72;;;19.40;41.80;;;;;;5054705;28;20435;-77
2022/04/29 06:31:07;;;;;;;7.72;3.20;;;19.40;41.50;;;;;;5055330;28;20096;-79
2022/04/29 06:33:34;;;;;;;6.25;3.17;;;19.40;41.20;;;;;;5054635;28;20111;-77
2022/04/29 06:36:02;;;;;;;9.93;3.75;;;19.40;41.40;;;;;;5053402;28;20386;-79
2022/04/29 06:38:28;;;;;;;51.55;6.72;;;19.40;41.70;;;;;;5036985;28;20086;-77
2022/04/29 06:40:55;;;;;;;45.75;5.90;;;19.40;41.50;;;;;;5053348;28;20021;-78
2022/04/29 06:43:22;;;;;;;10.38;3.00;;;19.40;41.40;;;;;;5055097;28;20033;-76
2022/04/29 06:45:48;;;;;;;10.25;3.58;;;19.50;41.40;;;;;;5054677;28;20025;-78
2022/04/29 06:48:14;;;;;;;10.07;3.65;;;19.50;41.20;;;;;;5054621;28;20078;-78
2022/04/29 06:50:40;;;;;;;5.65;3.40;;;19.60;41.50;;;;;;5053216;28;20036;-77
2022/04/29 06:53:06;;;;;;;9.02;3.13;;;19.70;41.70;;;;;;5053956;28;20053;-77
2022/04/29 06:55:35;;;;;;;6.65;3.10;;;19.70;41.10;;;;;;5053882;28;20033;-77
2022/04/29 06:58:02;;;;;;;16.27;4.40;;;19.90;41.10;;;;;;5054530;28;20021;-78
2022/04/29 07:00:28;;;;;;;7.25;3.20;;;20.10;41.10;;;;;;5054233;28;20033;-78
2022/04/29 07:02:56;;;;;;;12.27;3.67;;;20.20;40.90;;;;;;5054631;28;20120;-79
2022/04/29 07:05:23;;;;;;;10.93;4.07;;;20.30;40.70;;;;;;5054581;28;20032;-79
2022/04/29 07:07:51;;;;;;;6.70;3.60;;;20.40;41.00;;;;;;5053501;28;20029;-78
2022/04/29 07:10:17;;;;;;;15.38;4.35;;;20.50;40.80;;;;;;5054987;28;20057;-80
2022/04/29 07:12:44;;;;;;;13.77;5.68;;;20.70;40.80;;;;;;5053691;28;20541;-75
2022/04/29 07:15:13;;;;;;;12.73;3.88;;;20.80;40.40;;;;;;5053762;28;20029;-78
2022/04/29 07:17:40;;;;;;;14.63;4.80;;;21.00;40.40;;;;;;5053789;28;20017;-78
2022/04/29 07:20:07;;;;;;;7.28;3.45;;;21.10;40.20;;;;;;5053769;28;20033;-78
2022/04/29 07:22:33;;;;;;;6.30;2.95;;;21.20;39.70;;;;;;5056409;28;20059;-78
2022/04/29 07:25:00;;;;;;;8.75;3.38;;;21.20;39.60;;;;;;5054548;28;20021;-79
2022/04/29 07:27:28;;;;;;;10.63;3.88;;;21.20;39.90;;;;;;5055364;28;20104;-78
2022/04/29 07:29:54;;;;;;;11.27;4.00;;;21.20;39.70;;;;;;5056763;28;20093;-76
2022/04/29 07:32:20;;;;;;;8.70;3.20;;;21.30;39.60;;;;;;5057935;28;20078;-77
2022/04/29 07:42:59;;;;;;;7.00;3.45;;;21.30;39.40;;;;;;5053457;28;20046;-76
2022/04/29 07:45:24;;;;;;;5.13;3.08;;;21.40;38.80;;;;;;5052707;28;20021;-78
2022/04/29 07:47:51;;;;;;;9.52;2.90;;;21.30;38.70;;;;;;5053022;28;20023;-76
2022/04/29 07:50:16;;;;;;;7.22;2.78;;;21.30;38.30;;;;;;5052837;28;20024;-77
2022/04/29 07:52:44;;;;;;;14.88;4.22;;;21.30;38.50;;;;;;5052239;28;20053;-77
2022/04/29 07:55:10;;;;;;;6.88;3.47;;;21.30;38.60;;;;;;5052565;28;20048;-78
2022/04/29 07:57:36;;;;;;;6.20;2.72;;;21.40;39.00;;;;;;5051270;28;20029;-77
2022/04/29 08:00:04;;;;;;;6.65;2.67;;;21.40;38.20;;;;;;5051249;28;20067;-77
2022/04/29 08:02:31;;;;;;;5.65;2.97;;;21.30;38.10;;;;;;5052729;28;20039;-77
2022/04/29 08:04:56;;;;;;;11.73;3.53;;;21.30;38.10;;;;;;5052778;28;20023;-77
2022/04/29 08:07:23;;;;;;;11.43;3.17;;;21.20;37.60;;;;;;5051571;28;20105;-77
2022/04/29 08:09:49;;;;;;;11.68;3.20;;;21.20;38.00;;;;;;5053267;28;20021;-76
2022/04/29 08:12:16;;;;;;;13.27;3.30;;;21.20;38.10;;;;;;5052969;28;20021;-76
2022/04/29 08:14:42;;;;;;;8.10;3.00;;;21.20;37.90;;;;;;5051193;28;20107;-76
2022/04/29 08:17:08;;;;;;;8.48;3.30;;;21.20;37.60;;;;;;5051188;28;20482;-77
2022/04/29 08:19:33;;;;;;;7.10;2.80;;;21.20;37.60;;;;;;5052316;28;20028;-78
2022/04/29 08:21:59;;;;;;;9.63;3.20;;;21.20;37.50;;;;;;5052718;28;20021;-77
2022/04/29 08:24:26;;;;;;;9.60;3.78;;;21.10;37.30;;;;;;5051303;28;20039;-78
2022/04/29 08:26:52;;;;;;;7.47;3.05;;;21.10;37.80;;;;;;5051376;28;20049;-77
2022/04/29 08:29:19;;;;;;;10.15;3.10;;;21.10;38.00;;;;;;5051417;28;20104;-78
2022/04/29 08:31:44;;;;;;;5.60;2.90;;;21.20;38.50;;;;;;5052098;28;20083;-76
2022/04/29 08:34:11;;;;;;;7.80;2.63;;;21.20;38.10;;;;;;5052627;28;20040;-77
2022/04/29 08:36:37;;;;;;;6.05;3.20;;;21.10;37.70;;;;;;5054683;28;20474;-77
2022/04/29 08:39:03;;;;;;;7.72;3.40;;;21.10;37.80;;;;;;5055013;28;20055;-78
2022/04/29 08:41:30;;;;;;;6.75;2.55;;;21.10;37.60;;;;;;5056448;28;20041;-77
2022/04/29 08:43:55;;;;;;;7.75;2.90;;;21.00;37.20;;;;;;5056284;28;20029;-77
2022/04/29 08:46:22;;;;;;;5.50;2.60;;;21.00;37.60;;;;;;5056343;28;20017;-77
2022/04/29 08:48:51;;;;;;;8.02;2.80;;;21.00;37.60;;;;;;5056613;28;20052;-78
2022/04/29 08:51:18;;;;;;;5.28;2.55;;;21.00;37.40;;;;;;5054815;28;20021;-78
2022/04/29 08:53:43;;;;;;;6.38;2.92;;;21.00;37.50;;;;;;5055836;28;20041;-76
2022/04/29 08:58:55;;;;;;;5.28;2.55;;;21.00;37.20;;;;;;5056352;28;20036;-78
2022/04/29 09:01:21;;;;;;;5.10;2.60;;;21.10;36.90;;;;;;5054921;28;20116;-77
2022/04/29 09:03:50;;;;;;;7.72;3.03;;;21.10;36.90;;;;;;5056101;28;20099;-79
2022/04/29 09:06:17;;;;;;;9.50;2.78;;;21.10;36.80;;;;;;5056112;28;20028;-78
2022/04/29 09:08:46;;;;;;;5.80;2.60;;;21.20;35.90;;;;;;5054362;28;20021;-77
2022/04/29 09:11:32;;;;;;;16.00;4.00;;;21.20;36.40;;;;;;5055787;28;20100;-78
2022/04/29 09:13:57;;;;;;;6.30;2.67;;;21.20;36.40;;;;;;5055295;28;20486;-77
2022/04/29 09:16:24;;;;;;;5.07;2.70;;;21.30;36.70;;;;;;5054270;28;20021;-78
2022/04/29 09:18:54;;;;;;;5.22;2.40;;;21.30;36.20;;;;;;5055575;28;20094;-77
2022/04/29 09:21:24;;;;;;;5.47;2.50;;;21.30;36.10;;;;;;5055363;28;20021;-79
2022/04/29 09:23:55;;;;;;;6.82;3.10;;;21.30;36.00;;;;;;5053886;28;20112;-76
2022/04/29 09:26:24;;;;;;;6.32;3.13;;;21.50;35.90;;;;;;5056217;28;20097;-78
2022/04/29 09:28:52;;;;;;;17.98;4.20;;;21.50;36.10;;;;;;5057458;28;20066;-76
2022/04/29 09:31:18;;;;;;;16.13;3.47;;;21.60;36.10;;;;;;5055673;28;20029;-79
2022/04/29 09:33:55;;;;;;;5.70;2.53;;;21.60;35.50;;;;;;5055365;28;20036;-77
2022/04/29 09:36:27;;;;;;;10.48;2.60;;;21.70;35.40;;;;;;5055428;28;20093;-79
2022/04/29 09:42:00;;;;;;;7.85;2.33;;;21.80;35.60;;;;;;5055559;28;20398;-77
2022/04/29 09:44:34;;;;;;;5.18;2.38;;;21.90;34.90;;;;;;5055236;28;20025;-78
2022/04/29 09:47:11;;;;;;;8.68;2.67;;;21.90;34.80;;;;;;5055045;28;20104;-78
2022/04/29 09:49:38;;;;;;;10.30;3.10;;;22.00;35.10;;;;;;5055427;28;20049;-77
2022/04/29 09:52:05;;;;;;;6.57;2.75;;;22.10;35.50;;;;;;5036781;28;20033;-77
2022/04/29 09:54:38;;;;;;;4.38;2.10;;;22.10;34.80;;;;;;5054677;28;20025;-76
2022/04/29 09:57:23;;;;;;;10.32;3.05;;;22.20;34.70;;;;;;5053411;28;20405;-76
2022/04/29 09:59:53;;;;;;;6.50;2.40;;;22.20;34.00;;;;;;5054761;28;20154;-78
2022/04/29 10:02:32;;;;;;;5.50;2.50;;;22.30;34.10;;;;;;5053685;28;20075;-78
2022/04/29 10:04:58;;;;;;;5.15;2.13;;;22.30;34.10;;;;;;5054632;28;20082;-78
2022/04/29 10:07:25;;;;;;;7.03;2.97;;;22.40;34.40;;;;;;5053645;28;20120;-77
2022/04/29 10:09:52;;;;;;;7.75;2.80;;;22.40;35.20;;;;;;5053352;28;20017;-78
2022/04/29 10:12:28;;;;;;;10.23;2.80;;;22.50;34.80;;;;;;5054854;28;20127;-77
2022/04/29 10:14:58;;;;;;;4.82;2.58;;;22.50;34.00;;;;;;5056922;28;20116;-78
2022/04/29 10:23:05;;;;;;;4.18;2.10;;;22.70;33.90;;;;;;5054803;28;20040;-77
2022/04/29 10:25:34;;;;;;;6.13;2.40;;;22.70;35.80;;;;;;5054339;28;20070;-77
2022/04/29 10:28:00;;;;;;;9.50;2.50;;;22.80;34.00;;;;;;5052739;28;20497;-76
2022/04/29 10:30:31;;;;;;;4.50;2.22;;;22.90;33.40;;;;;;5054177;28;20375;-77
2022/04/29 10:33:05;;;;;;;4.22;2.35;;;22.90;34.60;;;;;;5053870;28;20017;-78
2022/04/29 10:35:40;;;;;;;5.07;2.50;;;23.00;32.50;;;;;;5053838;28;20025;-77
2022/04/29 10:38:24;;;;;;;4.65;2.55;;;23.00;33.10;;;;;;5054224;28;20021;-77
2022/04/29 10:41:09;;;;;;;7.70;2.25;;;23.00;32.90;;;;;;5054262;28;20039;-78
2022/04/29 10:43:52;;;;;;;4.93;2.65;;;23.00;32.90;;;;;;5054241;28;20028;-77
2022/04/29 10:46:39;;;;;;;4.60;2.55;;;23.10;33.50;;;;;;5052989;28;20029;-77
2022/04/29 10:49:24;;;;;;;9.13;3.05;;;23.20;33.40;;;;;;5054066;28;20059;-76
2022/04/29 10:51:53;;;;;;;7.53;2.67;;;23.20;32.90;;;;;;5052263;28;20064;-77
2022/04/29 10:54:34;;;;;;;7.63;3.08;;;23.20;31.90;;;;;;5053734;28;20450;-78
2022/04/29 10:57:07;;;;;;;4.90;2.40;;;23.30;32.60;;;;;;5053292;28;20108;-77
2022/04/29 10:59:50;;;;;;;4.63;2.45;;;23.40;32.40;;;;;;5053724;28;20058;-77
2022/04/29 11:02:45;;;;;;;5.18;2.15;;;23.40;32.30;;;;;;5054067;28;20024;-78
2022/04/29 11:05:37;;;;;;;4.93;2.55;;;23.50;32.70;;;;;;5047841;28;20052;-77
2022/04/29 11:08:10;;;;;;;7.35;2.60;;;23.50;31.40;;;;;;5053714;28;20025;-77
2022/04/29 11:10:56;;;;;;;5.60;2.55;;;23.60;32.30;;;;;;5053785;28;20025;-77
2022/04/29 11:13:24;;;;;;;4.25;2.25;;;23.70;31.40;;;;;;5052161;28;20090;-76
2022/04/29 11:15:51;;;;;;;4.07;2.33;;;23.80;32.30;;;;;;5053360;28;20029;-77
2022/04/29 11:18:23;;;;;;;4.93;2.90;;;23.80;32.50;;;;;;5053470;28;20029;-77
2022/04/29 11:20:56;;;;;;;5.15;2.70;;;23.90;32.60;;;;;;5051705;28;20032;-78
2022/04/29 11:26:11;;;;;;;5.72;2.65;;;24.10;31.20;;;;;;5053179;28;19912;-78
2022/04/29 11:28:37;;;;;;;5.25;2.55;;;24.20;32.40;;;;;;5051565;28;20037;-76
2022/04/29 11:31:05;;;;;;;6.65;2.75;;;24.20;32.60;;;;;;5051661;28;20107;-77
2022/04/29 11:33:31;;;;;;;5.05;2.60;;;24.20;32.50;;;;;;5052989;28;20055;-76
2022/04/29 11:36:09;;;;;;;6.13;2.42;;;24.20;32.50;;;;;;5051663;28;20389;-77
2022/04/29 11:38:42;;;;;;;6.28;2.42;;;24.20;31.30;;;;;;5051867;28;20052;-77
2022/04/29 11:41:13;;;;;;;11.25;2.63;;;24.30;32.70;;;;;;5053102;28;20024;-77
2022/04/29 11:43:40;;;;;;;6.20;2.65;;;24.30;32.10;;;;;;5053071;28;20454;-78
2022/04/29 11:46:07;;;;;;;7.53;2.60;;;24.30;33.00;;;;;;5051807;28;20021;-77
2022/04/29 11:48:34;;;;;;;7.22;2.42;;;24.40;31.70;;;;;;5053088;28;20040;-78
2022/04/29 11:51:06;;;;;;;5.13;2.60;;;24.50;31.40;;;;;;5053128;28;20450;-78
2022/04/29 11:53:33;;;;;;;5.65;3.03;;;24.50;31.30;;;;;;5052511;28;20048;-76
2022/04/29 11:55:59;;;;;;;5.68;2.90;;;24.70;31.80;;;;;;5052901;28;20024;-76
2022/04/29 11:58:29;;;;;;;6.78;2.50;;;24.80;31.40;;;;;;5051420;28;20090;-76
2022/04/29 12:00:55;;;;;;;5.78;2.35;;;24.80;31.20;;;;;;5051606;28;20025;-76
2022/04/29 12:03:23;;;;;;;4.85;2.92;;;24.90;31.80;;;;;;5051380;28;20058;-77
2022/04/29 12:05:49;;;;;;;6.28;2.45;;;24.90;31.90;;;;;;5052705;28;20609;-77
2022/04/29 12:08:16;;;;;;;5.07;2.70;;;25.00;31.70;;;;;;5052680;28;20032;-78
2022/04/29 12:10:47;;;;;;;4.60;2.40;;;25.00;31.10;;;;;;5057205;28;20017;-78
2022/04/29 12:13:13;;;;;;;6.07;2.90;;;25.10;31.40;;;;;;5058310;28;20120;-77
2022/04/29 12:15:41;;;;;;;4.90;3.17;;;25.10;31.40;;;;;;5056883;28;20343;-77
2022/04/29 12:18:10;;;;;;;4.18;2.30;;;25.20;31.80;;;;;;5057271;28;20067;-78
2022/04/29 12:20:39;;;;;;;7.80;2.67;;;25.20;31.70;;;;;;5055503;28;20024;-77
2022/04/29 12:23:23;;;;;;;10.00;5.82;;;25.30;31.90;;;;;;5056625;28;20024;-77
2022/04/29 12:25:51;;;;;;;6.00;2.58;;;25.30;30.70;;;;;;5056598;28;20083;-76
2022/04/29 12:28:28;;;;;;;5.05;2.45;;;25.30;31.10;;;;;;5055773;28;20025;-78
2022/04/29 12:37:06;;;;;;;6.28;2.55;;;25.40;30.80;;;;;;5056770;28;20040;-76
2022/04/29 12:39:37;;;;;;;4.85;2.50;;;25.50;31.00;;;;;;5056403;28;20060;-76
2022/04/29 12:42:07;;;;;;;10.25;2.90;;;25.50;31.30;;;;;;5055210;28;20088;-77
2022/04/29 12:45:04;;;;;;;4.47;2.42;;;25.50;31.80;;;;;;5054668;28;20039;-76
2022/04/29 12:47:44;;;;;;;4.93;2.63;;;25.60;32.60;;;;;;5056270;28;20025;-78
2022/04/29 12:50:34;;;;;;;6.00;2.65;;;25.60;31.80;;;;;;5056383;28;20024;-77
2022/04/29 12:53:08;;;;;;;4.47;2.67;;;25.70;30.70;;;;;;5055789;28;20053;-77
2022/04/29 12:55:48;;;;;;;4.45;2.63;;;25.70;31.00;;;;;;5056703;28;20122;-76
2022/04/29 12:58:19;;;;;;;7.78;2.58;;;25.60;30.90;;;;;;5056042;28;20025;-75
2022/04/29 13:01:06;;;;;;;8.45;2.92;;;25.70;31.50;;;;;;5057356;28;20056;-76
2022/04/29 13:03:34;;;;;;;8.13;2.97;;;25.80;31.30;;;;;;5054216;28;20025;-76
2022/04/29 13:06:02;;;;;;;5.18;2.30;;;25.90;31.90;;;;;;5037889;28;20029;-77
2022/04/29 13:08:30;;;;;;;7.72;2.72;;;26.00;30.90;;;;;;5054318;28;20029;-78
2022/04/29 13:10:58;;;;;;;5.75;2.67;;;26.10;30.70;;;;;;5055570;28;20549;-77
2022/04/29 13:13:26;;;;;;;5.18;2.10;;;26.10;31.00;;;;;;5054269;28;20375;-76
2022/04/29 13:15:51;;;;;;;5.13;2.20;;;26.10;30.70;;;;;;5055639;28;20025;-77
2022/04/29 13:18:19;;;;;;;4.75;2.28;;;26.10;30.50;;;;;;5055758;28;20470;-76
2022/04/29 13:20:45;;;;;;;11.70;2.88;;;26.10;30.20;;;;;;5054775;28;20025;-78
2022/04/29 13:23:11;;;;;;;6.15;2.45;;;26.20;31.00;;;;;;5037629;28;20029;-76
2022/04/29 13:25:38;;;;;;;5.00;2.50;;;26.30;31.60;;;;;;5055566;28;20013;-76